Time;durP1;ratioP1;P1;durP2;ratioP2;P2;SDS_P1;SDS_P2;PMS_P1;PMS_P2;Temp;Humidity;BMP_temperature;BMP_pressure;BME280_temperature;BME280_humidity;BME280_pressure;Samples;Min_cycle;Max_cycle;Signal;HPM_P1;HPM_P2
2020/12/23 00:02:10;;;;;;;4.70;3.92;;;;;;;14.00;87.95;98883.75;6060962;23;20180;-81
2020/12/23 00:04:36;;;;;;;3.72;3.42;;;;;;;13.96;88.36;98871.47;6061426;23;20223;-81
2020/12/23 00:07:14;;;;;;;5.47;4.47;;;;;;;13.96;88.35;98876.88;6059327;23;20270;-81
2020/12/23 00:09:45;;;;;;;8.82;3.67;;;;;;;13.95;88.68;98869.75;6061341;23;20669;-81
2020/12/23 00:12:11;;;;;;;4.68;4.20;;;;;;;13.97;88.87;98872.34;6061434;23;20240;-81
2020/12/23 00:14:38;;;;;;;9.25;4.30;;;;;;;13.90;88.85;98866.56;6102603;23;20183;-82
2020/12/23 00:17:04;;;;;;;3.80;3.50;;;;;;;13.94;88.56;98865.34;6080654;23;20161;-83
2020/12/23 00:19:33;;;;;;;3.95;3.25;;;;;;;13.95;88.63;98858.94;6080848;23;20472;-82
2020/12/23 00:22:00;;;;;;;3.58;3.28;;;;;;;14.04;87.55;98863.59;6080326;23;20235;-83
2020/12/23 00:24:26;;;;;;;3.72;3.42;;;;;;;14.03;87.67;98861.84;6078078;23;20215;-82
2020/12/23 00:26:52;;;;;;;3.67;3.20;;;;;;;14.06;87.34;98861.59;6079581;23;20267;-82
2020/12/23 00:29:18;;;;;;;3.95;3.55;;;;;;;14.03;87.40;98858.31;6079211;23;20225;-81
2020/12/23 00:31:44;;;;;;;3.65;3.35;;;;;;;14.09;87.46;98864.03;6094704;23;20218;-81
2020/12/23 00:34:10;;;;;;;4.18;3.78;;;;;;;14.10;87.57;98859.50;6057832;23;20758;-83
2020/12/23 00:36:37;;;;;;;3.80;3.08;;;;;;;14.07;87.24;98862.47;6061660;23;20216;-81
2020/12/23 00:39:03;;;;;;;6.43;3.60;;;;;;;14.07;87.68;98867.88;6091854;23;20211;-81
2020/12/23 00:41:29;;;;;;;4.03;3.50;;;;;;;13.97;87.97;98867.78;6088221;23;20173;-83
2020/12/23 00:43:55;;;;;;;3.58;3.28;;;;;;;13.94;88.14;98856.34;6057984;23;20216;-82
2020/12/23 00:46:21;;;;;;;3.83;3.53;;;;;;;13.91;88.72;98857.50;6062892;23;20216;-81
2020/12/23 00:48:47;;;;;;;4.37;3.63;;;;;;;13.92;88.82;98853.78;6084873;23;20546;-82
2020/12/23 00:51:15;;;;;;;4.05;3.75;;;;;;;13.89;88.98;98856.75;6063245;23;20520;-81
2020/12/23 00:53:42;;;;;;;4.07;3.25;;;;;;;13.95;88.72;98858.94;6060491;23;20196;-83
2020/12/23 00:56:11;;;;;;;4.85;3.10;;;;;;;13.98;88.30;98861.41;6103406;23;20256;-81
2020/12/23 00:58:42;;;;;;;3.10;2.80;;;;;;;13.95;88.80;98858.94;6102829;23;20212;-81
2020/12/23 01:01:08;;;;;;;3.95;2.95;;;;;;;13.97;88.88;98851.56;6085847;23;20188;-82
2020/12/23 01:03:45;;;;;;;3.10;2.80;;;;;;;13.95;88.42;98858.94;6080595;23;20196;-82
2020/12/23 01:06:15;;;;;;;3.38;3.08;;;;;;;13.95;88.83;98864.34;6082253;23;20215;-83
2020/12/23 01:08:42;;;;;;;4.60;3.22;;;;;;;13.95;89.08;98869.75;6079864;23;20248;-83
2020/12/23 01:11:10;;;;;;;3.60;3.30;;;;;;;13.94;89.07;98862.63;6099488;23;20164;-82
2020/12/23 01:13:37;;;;;;;3.75;3.45;;;;;;;13.97;89.08;98869.63;6093339;23;20260;-81
2020/12/23 01:16:05;;;;;;;3.33;3.00;;;;;;;13.91;89.44;98862.91;6060551;23;20694;-82
2020/12/23 01:18:31;;;;;;;3.97;3.33;;;;;;;13.87;89.48;98871.38;6087575;23;20204;-81
2020/12/23 01:20:57;;;;;;;3.50;3.30;;;;;;;13.92;89.59;98861.91;6056914;23;20283;-81
2020/12/23 01:23:23;;;;;;;4.07;3.25;;;;;;;13.81;89.28;98872.75;6064576;23;20172;-81
2020/12/23 01:25:51;;;;;;;3.72;3.42;;;;;;;13.89;89.74;98877.53;6082890;23;20223;-82
2020/12/23 01:28:18;;;;;;;4.00;3.60;;;;;;;13.88;89.58;98868.53;6087627;23;20220;-83
2020/12/23 01:30:44;;;;;;;4.00;3.70;;;;;;;13.82;89.68;98873.63;6097415;23;20204;-83
2020/12/23 01:33:13;;;;;;;3.60;3.30;;;;;;;13.81;89.93;98885.38;6061379;23;20205;-83
2020/12/23 01:35:39;;;;;;;3.60;3.40;;;;;;;13.86;89.53;98881.34;6082962;23;20192;-82
2020/12/23 01:38:05;;;;;;;3.88;3.40;;;;;;;13.93;89.41;98887.94;6064879;23;20200;-83
2020/12/23 01:40:32;;;;;;;3.60;3.30;;;;;;;13.81;89.86;98893.50;6058374;23;20215;-83
2020/12/23 01:42:58;;;;;;;3.80;3.50;;;;;;;13.87;89.56;98888.44;6061619;23;20208;-84
2020/12/23 01:45:25;;;;;;;3.90;3.60;;;;;;;13.93;89.49;98879.84;6081447;23;20216;-83
2020/12/23 01:47:53;;;;;;;4.10;3.35;;;;;;;13.84;89.40;98891.38;6060610;23;20168;-83
2020/12/23 01:50:20;;;;;;;3.17;2.97;;;;;;;13.79;90.05;98881.97;6065468;23;20394;-83
2020/12/23 01:52:47;;;;;;;4.85;3.65;;;;;;;13.80;90.33;98887.25;6058242;23;20205;-83
2020/12/23 01:55:13;;;;;;;3.58;3.28;;;;;;;13.82;90.15;98879.03;6061323;23;20209;-83
2020/12/23 01:57:39;;;;;;;3.70;3.15;;;;;;;13.79;90.34;98885.53;6036075;23;20216;-83
2020/12/23 02:00:08;;;;;;;3.42;3.13;;;;;;;13.88;90.34;98887.47;6086246;23;20208;-83
2020/12/23 02:02:43;;;;;;;3.78;3.17;;;;;;;13.82;90.67;98890.66;6071954;23;20196;-82
2020/12/23 02:05:10;;;;;;;3.33;2.90;;;;;;;13.86;90.60;98886.75;6087584;23;20200;-82
2020/12/23 02:07:37;;;;;;;3.60;3.15;;;;;;;13.81;91.07;98886.25;6104672;23;20212;-82
2020/12/23 02:10:06;;;;;;;3.35;3.05;;;;;;;13.74;91.14;98879.63;6061173;23;20258;-82
2020/12/23 02:12:33;;;;;;;3.65;2.80;;;;;;;13.71;91.81;98871.75;6105988;23;20233;-81
2020/12/23 02:15:13;;;;;;;3.25;3.05;;;;;;;13.74;91.28;98879.63;6084521;23;20207;-81
2020/12/23 02:17:42;;;;;;;3.40;3.20;;;;;;;13.82;91.35;98874.44;6082505;23;20157;-81
2020/12/23 02:20:10;;;;;;;2.85;2.65;;;;;;;13.81;90.72;98879.97;6110995;23;20153;-82
2020/12/23 02:22:38;;;;;;;2.72;2.53;;;;;;;13.82;90.81;98868.22;6081316;23;20193;-82
2020/12/23 02:25:05;;;;;;;2.90;2.70;;;;;;;13.73;91.70;98866.25;6109224;23;20203;-82
2020/12/23 02:27:31;;;;;;;2.70;2.50;;;;;;;13.80;91.59;98871.03;6106300;23;20206;-82
2020/12/23 02:29:58;;;;;;;3.40;2.78;;;;;;;13.79;91.31;98858.50;6107849;23;20204;-81
2020/12/23 02:32:25;;;;;;;3.08;2.88;;;;;;;13.73;91.48;98863.53;6083823;23;20156;-82
2020/12/23 02:34:52;;;;;;;3.00;2.80;;;;;;;13.79;91.21;98853.09;6059054;23;20233;-82
2020/12/23 02:37:20;;;;;;;2.80;2.60;;;;;;;13.76;91.39;98857.91;6083406;23;20189;-82
2020/12/23 02:39:55;;;;;;;3.03;2.75;;;;;;;13.81;91.11;98840.31;6061439;23;20211;-81
2020/12/23 02:42:23;;;;;;;2.60;2.40;;;;;;;13.84;91.13;98850.84;6085469;23;20206;-82
2020/12/23 02:44:51;;;;;;;3.25;3.00;;;;;;;13.86;90.70;98851.59;6050711;23;20185;-82
2020/12/23 02:47:18;;;;;;;3.67;2.38;;;;;;;13.84;90.87;98844.59;6062812;23;20173;-82
2020/12/23 02:49:45;;;;;;;3.40;3.10;;;;;;;13.84;91.08;98840.03;6079218;23;20298;-82
2020/12/23 02:52:12;;;;;;;2.88;2.67;;;;;;;13.84;90.69;98839.19;6058898;23;20213;-82
2020/12/23 02:54:40;;;;;;;3.20;2.95;;;;;;;13.82;90.92;98833.06;6086822;23;20208;-82
2020/12/23 02:57:07;;;;;;;3.70;3.40;;;;;;;13.73;91.43;98825.72;6090699;23;20230;-82
2020/12/23 02:59:34;;;;;;;3.00;2.70;;;;;;;13.76;91.34;98831.72;6064298;23;20200;-82
2020/12/23 03:02:01;;;;;;;2.85;2.65;;;;;;;13.80;91.15;98835.03;6068800;23;20610;-82
2020/12/23 03:04:27;;;;;;;3.20;2.90;;;;;;;13.72;91.27;98830.28;6083065;23;20196;-81
2020/12/23 03:06:54;;;;;;;3.05;2.85;;;;;;;13.78;91.50;98835.19;6109681;23;20240;-81
2020/12/23 03:09:20;;;;;;;3.35;3.05;;;;;;;13.76;91.67;98833.59;6081346;23;20215;-81
2020/12/23 03:11:47;;;;;;;3.35;2.90;;;;;;;13.83;91.30;98832.91;6064432;23;20573;-80
2020/12/23 03:14:17;;;;;;;2.75;2.55;;;;;;;13.77;91.99;98827.19;6086362;23;20280;-82
2020/12/23 03:16:43;;;;;;;3.03;2.83;;;;;;;13.80;91.63;98835.03;6061788;23;20208;-81
2020/12/23 03:19:09;;;;;;;3.28;2.97;;;;;;;13.76;92.19;98829.00;6083616;23;20228;-81
2020/12/23 03:21:36;;;;;;;3.13;2.92;;;;;;;13.81;91.78;98818.69;6087829;23;20215;-81
2020/12/23 03:24:02;;;;;;;4.15;3.10;;;;;;;13.66;92.57;98811.00;6069642;23;20267;-81
2020/12/23 03:26:28;;;;;;;2.90;2.70;;;;;;;13.79;92.19;98817.09;6062257;23;20582;-81
2020/12/23 03:28:54;;;;;;;3.88;2.70;;;;;;;13.76;91.94;98809.25;6062186;23;20215;-81
2020/12/23 03:31:20;;;;;;;3.50;3.20;;;;;;;13.73;92.42;98804.09;6057526;23;20212;-80
2020/12/23 03:33:46;;;;;;;3.28;3.00;;;;;;;13.61;92.62;98805.97;6060752;23;20219;-81
2020/12/23 03:36:13;;;;;;;3.05;2.85;;;;;;;13.72;92.57;98811.38;6082309;23;20211;-81
2020/12/23 03:38:39;;;;;;;3.17;2.70;;;;;;;13.74;92.61;98814.78;6061590;23;20203;-81
2020/12/23 03:41:05;;;;;;;3.40;3.05;;;;;;;13.78;92.38;98802.75;6060897;23;20177;-81
2020/12/23 03:43:32;;;;;;;3.10;2.80;;;;;;;13.60;93.07;98779.97;6058442;23;20291;-81
2020/12/23 03:45:58;;;;;;;3.38;2.85;;;;;;;13.64;94.22;98773.28;6054878;23;20216;-81
2020/12/23 03:48:24;;;;;;;2.70;2.50;;;;;;;13.64;93.51;98777.84;6082902;23;20228;-81
2020/12/23 03:50:50;;;;;;;3.03;2.72;;;;;;;13.76;93.66;98796.59;6057724;23;20188;-82
2020/12/23 03:53:17;;;;;;;3.53;2.85;;;;;;;13.86;92.27;98789.44;6085631;23;20176;-81
2020/12/23 03:55:43;;;;;;;2.75;2.55;;;;;;;13.69;92.52;98784.59;6054805;23;20312;-80
2020/12/23 03:58:09;;;;;;;2.85;2.65;;;;;;;13.57;93.48;98777.50;6082522;23;20299;-81
2020/12/23 04:00:35;;;;;;;2.30;2.10;;;;;;;13.71;93.49;98763.69;6056828;23;20567;-81
2020/12/23 04:03:02;;;;;;;1.63;1.52;;;;;;;13.67;93.67;98755.97;6059980;23;20212;-81
2020/12/23 04:05:37;;;;;;;1.60;1.50;;;;;;;13.60;92.70;98761.03;6045703;23;20184;-81
2020/12/23 04:08:03;;;;;;;1.90;1.67;;;;;;;13.66;92.48;98756.97;6062949;23;20565;-81
2020/12/23 04:10:30;;;;;;;1.65;1.55;;;;;;;13.68;92.59;98768.50;6039467;23;20288;-81
2020/12/23 04:12:56;;;;;;;1.65;1.55;;;;;;;13.58;93.23;98768.41;6085530;23;20208;-81
2020/12/23 04:15:22;;;;;;;1.65;1.55;;;;;;;13.64;93.00;98762.47;6060289;23;20213;-81
2020/12/23 04:17:48;;;;;;;1.70;1.60;;;;;;;13.74;92.39;98760.75;6087200;23;20160;-81
2020/12/23 04:20:14;;;;;;;1.50;1.40;;;;;;;13.61;92.24;98773.56;6068048;23;20173;-81
2020/12/23 04:22:40;;;;;;;2.63;1.40;;;;;;;13.56;92.84;98775.78;6061939;23;20251;-81
2020/12/23 04:25:07;;;;;;;1.48;1.38;;;;;;;13.57;93.55;98764.00;6063924;23;20532;-81
2020/12/23 04:27:34;;;;;;;2.22;1.20;;;;;;;13.56;93.81;98761.44;6060921;23;20169;-82
2020/12/23 04:30:00;;;;;;;1.65;1.17;;;;;;;13.58;93.38;98775.66;6058527;23;20208;-82
2020/12/23 04:32:27;;;;;;;1.60;1.30;;;;;;;13.56;93.49;98764.13;6062261;23;20207;-81
2020/12/23 04:34:53;;;;;;;1.58;1.20;;;;;;;13.59;93.29;98772.84;6060017;23;20617;-81
2020/12/23 04:37:19;;;;;;;1.40;1.23;;;;;;;13.58;93.73;98767.56;6083058;23;20199;-82
2020/12/23 04:39:45;;;;;;;1.27;1.17;;;;;;;13.57;93.61;98760.44;6064154;23;20236;-81
2020/12/23 04:42:11;;;;;;;2.95;1.92;;;;;;;13.51;93.82;98771.75;6064251;23;20208;-81
2020/12/23 04:44:39;;;;;;;1.65;1.55;;;;;;;13.60;93.86;98769.16;6063275;23;20581;-82
2020/12/23 04:47:08;;;;;;;1.65;1.08;;;;;;;13.47;94.23;98754.09;6088250;23;20227;-81
2020/12/23 04:49:36;;;;;;;1.40;1.27;;;;;;;13.50;95.61;98760.09;6061878;23;20224;-82
2020/12/23 04:52:06;;;;;;;1.20;1.10;;;;;;;13.41;96.10;98743.78;6085936;23;20239;-82
2020/12/23 04:54:33;;;;;;;1.92;1.80;;;;;;;13.40;95.79;98728.56;6061743;23;20299;-81
2020/12/23 04:57:01;;;;;;;2.90;1.55;;;;;;;13.23;96.68;98732.66;6087023;23;20279;-82
2020/12/23 04:59:27;;;;;;;2.17;1.65;;;;;;;13.20;97.51;98730.22;6066148;23;20180;-82
2020/12/23 05:01:54;;;;;;;1.83;1.73;;;;;;;13.54;96.27;98722.88;6068885;23;20550;-82
2020/12/23 05:04:21;;;;;;;2.05;1.85;;;;;;;13.29;96.96;98721.38;6083720;23;20223;-81
2020/12/23 05:06:47;;;;;;;2.00;1.70;;;;;;;13.35;97.66;98734.34;6087370;23;20203;-81
2020/12/23 05:09:14;;;;;;;1.52;1.42;;;;;;;13.40;96.65;98720.47;6087356;23;20204;-81
2020/12/23 05:11:40;;;;;;;2.00;1.80;;;;;;;13.32;97.51;98729.19;6109872;23;20153;-79
2020/12/23 05:14:08;;;;;;;3.08;2.35;;;;;;;13.54;96.66;98745.34;6057853;23;20214;-81
2020/12/23 05:16:34;;;;;;;2.67;1.98;;;;;;;13.35;97.14;98728.97;6088896;23;20201;-81
2020/12/23 05:19:01;;;;;;;1.20;1.10;;;;;;;13.20;98.19;98738.31;6061645;23;20205;-80
2020/12/23 05:21:28;;;;;;;3.08;1.70;;;;;;;13.23;98.43;98735.38;6085856;23;20204;-81
2020/12/23 05:23:56;;;;;;;1.70;1.60;;;;;;;13.29;98.96;98736.69;6085913;23;20296;-81
2020/12/23 05:26:25;;;;;;;1.80;1.30;;;;;;;13.39;97.81;98725.00;6087648;23;20282;-81
2020/12/23 05:28:52;;;;;;;2.95;1.23;;;;;;;13.59;96.02;98726.91;6060209;23;20208;-81
2020/12/23 05:31:20;;;;;;;1.30;1.10;;;;;;;13.40;96.55;98740.25;6061609;23;20208;-81
2020/12/23 05:33:48;;;;;;;1.30;1.20;;;;;;;13.48;95.95;98729.66;6062031;23;20215;-81
2020/12/23 05:36:35;;;;;;;1.40;1.30;;;;;;;13.44;96.12;98728.19;6069532;23;20275;-81
2020/12/23 05:39:04;;;;;;;1.48;1.20;;;;;;;13.56;96.00;98731.72;6063299;23;20231;-81
2020/12/23 05:41:31;;;;;;;1.40;1.20;;;;;;;13.42;96.44;98730.16;6064651;23;20171;-81
2020/12/23 05:43:57;;;;;;;1.50;1.20;;;;;;;13.44;96.46;98725.47;6085329;23;20291;-81
2020/12/23 05:46:23;;;;;;;1.98;1.10;;;;;;;13.51;96.61;98723.97;6085028;23;20208;-81
2020/12/23 05:48:49;;;;;;;2.43;1.50;;;;;;;13.54;96.20;98723.75;6061818;23;20214;-82
2020/12/23 05:51:15;;;;;;;2.33;1.73;;;;;;;13.53;95.58;98716.63;6061468;23;20440;-81
2020/12/23 05:53:41;;;;;;;2.00;1.70;;;;;;;13.61;95.73;98718.66;6061247;23;20177;-81
2020/12/23 05:56:08;;;;;;;2.70;2.10;;;;;;;13.42;96.51;98719.34;6063820;23;20180;-81
2020/12/23 05:58:37;;;;;;;2.22;1.52;;;;;;;13.55;95.47;98706.53;6063498;23;20234;-81
2020/12/23 06:01:08;;;;;;;2.65;1.80;;;;;;;13.52;96.05;98703.25;6069445;23;20218;-81
2020/12/23 06:04:00;;;;;;;1.73;1.60;;;;;;;13.47;96.31;98711.72;6092029;23;20215;-81
2020/12/23 06:06:28;;;;;;;2.13;1.92;;;;;;;13.59;94.82;98709.84;6093283;23;20284;-82
2020/12/23 06:09:00;;;;;;;1.73;1.63;;;;;;;13.55;94.91;98702.97;6068546;23;20593;-81
2020/12/23 06:11:33;;;;;;;2.63;1.95;;;;;;;13.50;94.29;98703.38;6095791;23;20177;-81
2020/12/23 06:14:37;;;;;;;1.90;1.80;;;;;;;13.49;93.90;98701.66;6046329;23;20583;-81
2020/12/23 06:17:05;;;;;;;2.10;1.88;;;;;;;13.47;93.61;98700.94;5989483;24;20205;-81
2020/12/23 06:19:36;;;;;;;2.10;1.90;;;;;;;13.39;92.73;98697.16;6072929;23;20235;-81
2020/12/23 06:22:07;;;;;;;2.40;2.20;;;;;;;13.35;93.59;98691.16;6087704;23;20285;-82
2020/12/23 06:24:35;;;;;;;2.55;2.35;;;;;;;13.22;94.90;98690.47;6064710;23;20689;-81
2020/12/23 06:27:05;;;;;;;2.53;2.33;;;;;;;13.35;94.03;98688.44;6069921;23;20212;-81
2020/12/23 06:29:34;;;;;;;2.40;2.20;;;;;;;13.36;93.53;98686.59;6072284;23;20202;-82
2020/12/23 06:32:09;;;;;;;2.70;2.50;;;;;;;13.31;93.08;98689.69;6065774;23;20204;-82
2020/12/23 06:34:39;;;;;;;3.00;2.45;;;;;;;13.34;92.82;98693.97;6087541;23;20219;-82
2020/12/23 06:37:19;;;;;;;4.53;3.58;;;;;;;13.24;93.54;98684.94;6085694;23;20691;-82
2020/12/23 06:39:47;;;;;;;2.85;2.65;;;;;;;13.31;93.82;98684.28;6088960;23;20209;-82
2020/12/23 06:42:13;;;;;;;3.85;3.35;;;;;;;13.20;92.94;98676.22;6065046;23;20288;-83
2020/12/23 06:45:00;;;;;;;3.80;3.50;;;;;;;13.16;92.84;98674.78;6089424;23;20192;-82
2020/12/23 06:47:31;;;;;;;5.28;4.50;;;;;;;13.24;92.85;98677.69;6093678;23;20171;-82
2020/12/23 06:50:06;;;;;;;4.40;4.00;;;;;;;13.13;93.57;98680.41;6067162;23;20244;-82
2020/12/23 06:52:37;;;;;;;5.05;4.00;;;;;;;13.19;93.13;98679.06;6065737;23;20208;-82
2020/12/23 06:55:09;;;;;;;6.40;4.80;;;;;;;13.14;92.00;98670.47;6065122;23;20213;-82
2020/12/23 06:57:38;;;;;;;6.63;5.18;;;;;;;13.20;92.72;98670.81;6091420;23;20212;-82
2020/12/23 07:00:07;;;;;;;5.70;5.13;;;;;;;13.15;92.55;98667.66;6093234;23;20223;-82
2020/12/23 07:02:45;;;;;;;5.13;4.63;;;;;;;13.17;92.07;98673.78;6072541;23;20513;-83
2020/12/23 07:05:32;;;;;;;5.85;4.88;;;;;;;13.28;91.91;98673.75;6068480;23;20200;-83
2020/12/23 07:08:01;;;;;;;4.50;4.10;;;;;;;13.21;90.59;98677.97;6043444;23;20213;-83
2020/12/23 07:10:51;;;;;;;5.45;4.75;;;;;;;13.27;90.90;98676.56;6073509;23;20256;-82
2020/12/23 07:13:21;;;;;;;5.10;4.63;;;;;;;13.20;90.15;98673.50;6110729;23;20185;-82
2020/12/23 07:15:58;;;;;;;5.50;4.97;;;;;;;13.11;90.83;98670.75;6087219;23;20200;-82
2020/12/23 07:18:27;;;;;;;8.15;4.63;;;;;;;13.13;90.15;98669.59;6106444;23;20215;-82
2020/12/23 07:21:06;;;;;;;5.00;4.50;;;;;;;13.10;89.74;98677.97;6072199;23;20239;-82
2020/12/23 07:23:34;;;;;;;4.25;3.92;;;;;;;13.12;90.37;98676.00;6100092;23;20200;-82
2020/12/23 07:26:06;;;;;;;6.00;5.40;;;;;;;13.11;90.68;98674.28;6046144;23;20204;-82
2020/12/23 07:28:42;;;;;;;4.65;4.25;;;;;;;13.15;88.56;98673.06;6043887;23;20233;-82
2020/12/23 07:31:10;;;;;;;6.00;5.00;;;;;;;13.15;89.30;98670.38;6092080;23;20210;-83
2020/12/23 07:33:39;;;;;;;6.45;5.55;;;;;;;13.11;89.56;98670.75;6089469;23;20670;-83
2020/12/23 07:36:07;;;;;;;4.97;4.40;;;;;;;13.17;88.80;98676.47;6066427;23;20425;-83
2020/12/23 07:38:36;;;;;;;5.53;4.75;;;;;;;13.10;88.68;98677.97;6066976;23;20188;-82
2020/12/23 07:41:02;;;;;;;5.80;4.32;;;;;;;13.13;89.37;98675.00;6091427;23;20295;-82
2020/12/23 07:43:28;;;;;;;5.10;4.60;;;;;;;13.16;88.66;98672.06;6088560;23;20287;-82
2020/12/23 07:45:55;;;;;;;4.82;4.40;;;;;;;13.13;88.35;98675.00;6066451;23;20240;-82
2020/12/23 07:48:23;;;;;;;4.72;4.20;;;;;;;13.07;88.50;98685.47;6063730;23;20241;-82
2020/12/23 07:50:51;;;;;;;12.40;4.57;;;;;;;12.99;88.69;98687.97;6092059;23;20173;-83
2020/12/23 07:53:23;;;;;;;19.90;5.90;;;;;;;13.00;89.24;98689.66;6094061;23;20188;-82
2020/12/23 07:55:59;;;;;;;4.90;4.40;;;;;;;13.00;89.18;98686.97;6091872;23;20228;-83
2020/12/23 07:58:25;;;;;;;4.88;4.38;;;;;;;12.97;88.55;98685.38;6092356;23;20256;-83
2020/12/23 08:00:51;;;;;;;7.20;4.82;;;;;;;12.94;88.76;98680.19;6069130;23;20724;-81
2020/12/23 08:03:28;;;;;;;5.68;4.50;;;;;;;12.96;89.29;98678.25;6069132;23;20204;-83
2020/12/23 08:06:11;;;;;;;6.55;4.65;;;;;;;12.99;88.88;98672.59;6067263;23;20204;-82
2020/12/23 08:08:39;;;;;;;9.43;4.55;;;;;;;13.06;88.30;98678.38;6063358;23;20224;-82
2020/12/23 08:11:13;;;;;;;5.00;4.40;;;;;;;13.01;88.22;98675.19;6088054;23;20173;-81
2020/12/23 08:13:41;;;;;;;15.00;4.75;;;;;;;13.02;88.78;98679.59;6055413;23;20306;-82
2020/12/23 08:16:13;;;;;;;4.50;4.05;;;;;;;13.04;88.28;98681.19;6082382;23;20227;-82
2020/12/23 08:18:40;;;;;;;4.55;3.80;;;;;;;12.98;88.45;98680.81;6088325;23;20234;-82
2020/12/23 08:21:11;;;;;;;8.48;4.70;;;;;;;13.01;88.27;98681.44;6063290;23;20239;-82
2020/12/23 08:23:38;;;;;;;5.25;4.30;;;;;;;13.02;87.71;98683.16;6063037;23;20176;-82
2020/12/23 08:26:05;;;;;;;5.82;4.05;;;;;;;13.05;88.33;98688.28;6071984;23;20195;-82
2020/12/23 08:28:42;;;;;;;5.55;4.05;;;;;;;13.00;88.29;98684.28;6094492;23;20219;-83
2020/12/23 08:31:16;;;;;;;5.30;4.50;;;;;;;13.04;87.58;98691.97;6073668;23;20203;-82
2020/12/23 08:33:44;;;;;;;3.80;3.47;;;;;;;12.98;87.65;98686.22;6080939;23;20684;-82
2020/12/23 08:36:14;;;;;;;4.20;3.80;;;;;;;12.97;87.74;98685.38;6091897;23;20205;-83
2020/12/23 08:38:41;;;;;;;7.47;4.00;;;;;;;13.02;88.01;98683.16;6068094;23;20280;-83
2020/12/23 08:41:14;;;;;;;4.40;4.00;;;;;;;12.95;88.45;98681.94;6098990;23;20397;-83
2020/12/23 08:43:46;;;;;;;7.25;4.10;;;;;;;13.10;87.64;98686.06;6095516;23;20239;-83
2020/12/23 08:46:21;;;;;;;4.05;3.75;;;;;;;13.06;87.18;98684.59;6094748;23;20240;-83
2020/12/23 08:48:52;;;;;;;4.50;4.10;;;;;;;13.06;87.06;98683.75;6093729;23;20210;-83
2020/12/23 08:51:23;;;;;;;4.20;3.72;;;;;;;13.08;87.25;98681.78;6096975;23;20205;-83
2020/12/23 08:53:57;;;;;;;6.45;4.53;;;;;;;13.17;87.37;98681.88;6070442;23;20212;-82
2020/12/23 08:56:28;;;;;;;5.22;4.72;;;;;;;13.22;86.64;98676.09;6074383;23;20176;-82
2020/12/23 08:59:01;;;;;;;5.28;4.18;;;;;;;13.15;86.72;98670.38;6074932;23;20219;-83
2020/12/23 09:01:30;;;;;;;4.25;3.85;;;;;;;13.17;86.23;98672.91;6083296;23;20280;-83
2020/12/23 09:04:04;;;;;;;5.15;4.65;;;;;;;13.25;86.18;98679.38;6101162;23;20213;-83
2020/12/23 09:06:32;;;;;;;5.53;4.57;;;;;;;13.31;86.67;98670.78;6107145;23;20208;-83
2020/12/23 09:09:07;;;;;;;5.25;3.88;;;;;;;13.22;85.77;98670.69;6110658;23;20200;-82
2020/12/23 09:11:58;;;;;;;5.45;4.95;;;;;;;13.27;86.29;98671.19;6108825;23;20227;-82
2020/12/23 09:14:27;;;;;;;4.40;4.00;;;;;;;13.31;86.38;98675.34;6084073;23;20200;-83
2020/12/23 09:16:58;;;;;;;11.80;4.05;;;;;;;13.28;86.41;98672.88;6103844;23;20210;-83
2020/12/23 09:19:44;;;;;;;3.63;3.33;;;;;;;13.36;85.22;98671.25;6077923;23;20204;-84
2020/12/23 09:22:12;;;;;;;4.68;3.75;;;;;;;13.35;85.75;98652.47;6073184;23;20214;-83
2020/12/23 09:24:39;;;;;;;6.15;3.75;;;;;;;13.36;85.17;98660.47;6097972;23;20224;-82
2020/12/23 09:27:18;;;;;;;5.63;4.55;;;;;;;13.34;85.94;98654.34;6074420;23;20213;-82
2020/12/23 09:29:44;;;;;;;5.75;4.53;;;;;;;13.25;87.16;98657.78;6071422;23;20183;-82
2020/12/23 09:32:10;;;;;;;4.85;4.35;;;;;;;13.22;87.81;98658.06;6073956;23;20192;-83
2020/12/23 09:34:52;;;;;;;6.53;4.05;;;;;;;13.41;85.68;98643.84;6087568;23;20219;-83
2020/12/23 09:37:30;;;;;;;5.18;3.88;;;;;;;13.36;85.77;98655.06;6048412;23;20303;-84
2020/12/23 09:39:56;;;;;;;4.65;4.25;;;;;;;13.39;85.81;98654.78;6041246;23;20289;-83
2020/12/23 09:42:22;;;;;;;4.13;3.72;;;;;;;13.41;86.01;98657.38;6062625;23;20240;-84
2020/12/23 09:44:49;;;;;;;3.90;3.53;;;;;;;13.30;86.04;98646.59;6068662;23;20193;-83
2020/12/23 09:47:15;;;;;;;4.13;3.72;;;;;;;13.35;86.29;98641.69;6080245;23;20188;-84
2020/12/23 09:49:42;;;;;;;7.20;3.70;;;;;;;13.40;85.74;98645.72;6065960;23;20232;-82
2020/12/23 09:52:08;;;;;;;5.20;3.65;;;;;;;13.38;86.07;98644.97;6069629;23;20264;-82
2020/12/23 09:54:34;;;;;;;5.35;4.15;;;;;;;13.42;86.19;98640.16;6095239;23;20247;-83
2020/12/23 09:57:00;;;;;;;4.90;4.20;;;;;;;13.53;85.62;98640.13;6069509;23;20196;-82
2020/12/23 09:59:26;;;;;;;5.22;4.13;;;;;;;13.45;85.61;98642.63;6097545;23;20183;-82
2020/12/23 10:01:52;;;;;;;7.65;4.47;;;;;;;13.45;85.72;98632.66;6069396;23;20243;-84
2020/12/23 10:04:18;;;;;;;7.97;4.90;;;;;;;13.47;85.36;98625.31;6068734;23;20212;-83
2020/12/23 10:06:45;;;;;;;5.35;3.92;;;;;;;13.52;85.33;98617.63;6046332;23;20440;-83
2020/12/23 10:09:11;;;;;;;5.30;4.30;;;;;;;13.55;85.03;98619.22;6066176;23;20661;-82
2020/12/23 10:11:37;;;;;;;4.70;3.92;;;;;;;13.58;85.50;98606.31;6066925;23;20934;-82
2020/12/23 10:14:03;;;;;;;4.80;4.28;;;;;;;13.58;85.57;98603.59;6070203;23;20200;-83
2020/12/23 10:16:33;;;;;;;4.88;4.47;;;;;;;13.58;85.36;98600.06;6067799;23;20212;-83
2020/12/23 10:19:00;;;;;;;4.18;3.78;;;;;;;13.75;83.97;98591.38;6078260;23;20208;-83
2020/12/23 10:21:27;;;;;;;5.43;4.10;;;;;;;13.78;84.41;98593.78;6104958;23;20212;-81
2020/12/23 10:23:54;;;;;;;6.25;4.15;;;;;;;13.72;85.28;98581.69;6111828;23;20223;-81
2020/12/23 10:26:20;;;;;;;4.68;4.28;;;;;;;13.80;84.57;98584.56;6090158;23;20196;-80
2020/12/23 10:28:47;;;;;;;5.07;4.57;;;;;;;13.99;83.42;98583.81;6087738;23;20199;-81
2020/12/23 10:31:13;;;;;;;6.65;4.30;;;;;;;13.95;83.04;98585.09;6086521;23;20216;-81
2020/12/23 10:33:40;;;;;;;4.72;4.40;;;;;;;14.00;82.84;98589.09;6081515;23;20238;-80
2020/12/23 10:36:12;;;;;;;5.40;4.80;;;;;;;13.96;83.21;98579.53;6106862;23;20208;-80
2020/12/23 10:38:43;;;;;;;5.00;4.50;;;;;;;13.87;83.50;98588.44;6069029;23;20169;-81
2020/12/23 10:41:10;;;;;;;4.45;3.80;;;;;;;13.90;83.73;98580.06;6108660;23;20169;-80
2020/12/23 10:43:37;;;;;;;4.97;4.43;;;;;;;13.92;83.79;98566.41;6082327;23;20272;-81
2020/12/23 10:46:07;;;;;;;4.63;4.07;;;;;;;14.07;83.20;98567.78;6081274;23;20205;-81
2020/12/23 10:48:33;;;;;;;6.82;4.28;;;;;;;14.13;83.60;98561.81;6106034;23;20222;-82
2020/12/23 10:51:03;;;;;;;7.30;4.00;;;;;;;14.26;83.02;98568.75;6104240;23;20235;-82
2020/12/23 10:53:32;;;;;;;4.68;3.75;;;;;;;14.31;81.81;98569.19;6107728;23;20173;-81
2020/12/23 10:55:59;;;;;;;6.85;4.00;;;;;;;14.26;81.98;98566.03;6077714;23;20209;-81
2020/12/23 10:58:25;;;;;;;6.57;3.70;;;;;;;14.33;81.89;98561.78;6029314;23;20213;-83
2020/12/23 11:00:51;;;;;;;5.65;3.97;;;;;;;14.25;81.70;98553.50;6032640;23;20249;-82
2020/12/23 11:03:18;;;;;;;4.32;3.00;;;;;;;14.30;81.22;98555.78;6095709;23;20196;-82
2020/12/23 11:05:44;;;;;;;4.03;3.55;;;;;;;14.13;81.74;98551.00;6103737;23;20192;-84
2020/12/23 11:08:10;;;;;;;3.63;3.33;;;;;;;14.30;81.52;98545.84;6084140;23;20161;-83
2020/12/23 11:10:36;;;;;;;4.45;3.10;;;;;;;14.21;80.64;98543.94;6057861;23;20208;-83
2020/12/23 11:13:03;;;;;;;3.40;3.10;;;;;;;14.07;81.20;98538.88;6081347;23;20212;-85
2020/12/23 11:15:29;;;;;;;4.22;3.10;;;;;;;14.12;81.89;98535.78;6081715;23;20224;-85
2020/12/23 11:17:55;;;;;;;4.80;4.05;;;;;;;14.27;81.61;98539.84;6105759;23;20689;-85
2020/12/23 11:20:22;;;;;;;3.75;3.35;;;;;;;14.25;80.60;98526.47;6083249;23;20167;-84
2020/12/23 11:22:48;;;;;;;4.00;3.60;;;;;;;14.41;80.40;98529.47;6077130;23;20209;-85
2020/12/23 11:25:14;;;;;;;4.07;3.67;;;;;;;14.25;80.51;98522.91;6081411;23;20216;-82
2020/12/23 11:27:41;;;;;;;3.63;3.33;;;;;;;14.15;80.91;98522.00;6102199;23;20208;-81
2020/12/23 11:30:07;;;;;;;4.00;2.95;;;;;;;14.11;81.71;98516.00;6074081;23;20229;-83
2020/12/23 11:32:34;;;;;;;6.75;4.28;;;;;;;14.15;81.33;98509.31;6068119;23;20168;-83
2020/12/23 11:35:03;;;;;;;4.40;3.75;;;;;;;14.12;82.58;98515.00;6096390;23;20197;-84
2020/12/23 11:37:31;;;;;;;4.18;3.03;;;;;;;14.28;80.64;98501.00;6042108;23;20212;-83
2020/12/23 11:39:58;;;;;;;3.90;3.50;;;;;;;14.21;80.90;98502.56;6043996;23;20208;-83
2020/12/23 11:42:25;;;;;;;4.82;3.55;;;;;;;14.05;82.39;98510.28;6088856;23;20212;-82